sensor_id;sensor_type;location;lat;lon;timestamp;temperature;humidity
3406;DHT22;10008;48.682;9.016;2023-11-19T00:00:01;8.10;99.90
3406;DHT22;10008;48.682;9.016;2023-11-19T00:02:33;8.10;99.90
3406;DHT22;10008;48.682;9.016;2023-11-19T00:04:58;8.10;99.90
3406;DHT22;10008;48.682;9.016;2023-11-19T00:07:24;8.20;99.90
3406;DHT22;10008;48.682;9.016;2023-11-19T00:09:50;8.20;99.90
3406;DHT22;10008;48.682;9.016;2023-11-19T00:12:15;8.20;99.90
3406;DHT22;10008;48.682;9.016;2023-11-19T00:14:41;8.30;99.90
3406;DHT22;10008;48.682;9.016;2023-11-19T00:17:07;8.40;99.90
3406;DHT22;10008;48.682;9.016;2023-11-19T00:19:32;8.40;99.90
3406;DHT22;10008;48.682;9.016;2023-11-19T00:21:58;8.40;99.90
3406;DHT22;10008;48.682;9.016;2023-11-19T00:24:28;8.40;99.90
3406;DHT22;10008;48.682;9.016;2023-11-19T00:26:54;8.50;99.90
3406;DHT22;10008;48.682;9.016;2023-11-19T00:29:19;8.40;99.90
3406;DHT22;10008;48.682;9.016;2023-11-19T00:31:46;8.40;99.90
3406;DHT22;10008;48.682;9.016;2023-11-19T00:34:12;8.50;99.90
3406;DHT22;10008;48.682;9.016;2023-11-19T00:36:38;8.50;99.90
3406;DHT22;10008;48.682;9.016;2023-11-19T00:39:03;8.60;99.90
3406;DHT22;10008;48.682;9.016;2023-11-19T00:41:29;8.70;99.90
3406;DHT22;10008;48.682;9.016;2023-11-19T00:43:55;8.70;99.90
3406;DHT22;10008;48.682;9.016;2023-11-19T00:46:21;8.70;99.90
3406;DHT22;10008;48.682;9.016;2023-11-19T00:48:46;8.80;99.90
3406;DHT22;10008;48.682;9.016;2023-11-19T00:51:12;8.80;99.90
3406;DHT22;10008;48.682;9.016;2023-11-19T00:53:38;8.80;99.90
3406;DHT22;10008;48.682;9.016;2023-11-19T00:56:04;8.40;99.90
3406;DHT22;10008;48.682;9.016;2023-11-19T00:58:30;9.00;99.90
3406;DHT22;10008;48.682;9.016;2023-11-19T01:00:56;9.00;99.90
3406;DHT22;10008;48.682;9.016;2023-11-19T01:03:22;9.00;99.90
3406;DHT22;10008;48.682;9.016;2023-11-19T01:05:48;9.10;99.90
3406;DHT22;10008;48.682;9.016;2023-11-19T01:08:14;9.10;99.90
3406;DHT22;10008;48.682;9.016;2023-11-19T01:10:41;9.10;99.90
3406;DHT22;10008;48.682;9.016;2023-11-19T01:13:07;9.20;99.90
3406;DHT22;10008;48.682;9.016;2023-11-19T01:15:33;9.20;99.90
3406;DHT22;10008;48.682;9.016;2023-11-19T01:17:58;9.30;99.90
3406;DHT22;10008;48.682;9.016;2023-11-19T01:20:24;9.30;99.90
3406;DHT22;10008;48.682;9.016;2023-11-19T01:22:50;9.30;99.90
3406;DHT22;10008;48.682;9.016;2023-11-19T01:25:17;9.30;99.90
3406;DHT22;10008;48.682;9.016;2023-11-19T01:27:44;9.30;99.90
3406;DHT22;10008;48.682;9.016;2023-11-19T01:30:10;9.30;99.90
3406;DHT22;10008;48.682;9.016;2023-11-19T01:32:38;9.40;99.90
3406;DHT22;10008;48.682;9.016;2023-11-19T01:35:05;9.40;99.90
3406;DHT22;10008;48.682;9.016;2023-11-19T01:37:31;9.40;99.90
3406;DHT22;10008;48.682;9.016;2023-11-19T01:39:57;9.40;99.90
3406;DHT22;10008;48.682;9.016;2023-11-19T01:42:23;9.40;99.90
3406;DHT22;10008;48.682;9.016;2023-11-19T01:44:59;9.40;99.90
3406;DHT22;10008;48.682;9.016;2023-11-19T01:47:27;9.50;99.90
3406;DHT22;10008;48.682;9.016;2023-11-19T01:49:54;9.50;99.90
3406;DHT22;10008;48.682;9.016;2023-11-19T01:52:22;9.50;99.90
3406;DHT22;10008;48.682;9.016;2023-11-19T01:54:49;9.50;99.90
3406;DHT22;10008;48.682;9.016;2023-11-19T01:57:15;9.50;99.90
3406;DHT22;10008;48.682;9.016;2023-11-19T01:59:41;9.60;99.90
3406;DHT22;10008;48.682;9.016;2023-11-19T02:02:07;9.60;99.90
3406;DHT22;10008;48.682;9.016;2023-11-19T02:04:33;9.70;99.90
3406;DHT22;10008;48.682;9.016;2023-11-19T02:07:00;9.70;99.90
3406;DHT22;10008;48.682;9.016;2023-11-19T02:09:26;9.70;99.90
3406;DHT22;10008;48.682;9.016;2023-11-19T02:11:53;9.70;99.90
3406;DHT22;10008;48.682;9.016;2023-11-19T02:14:25;9.70;99.90
3406;DHT22;10008;48.682;9.016;2023-11-19T02:16:52;9.80;99.90
3406;DHT22;10008;48.682;9.016;2023-11-19T02:19:21;9.80;99.90
3406;DHT22;10008;48.682;9.016;2023-11-19T02:21:47;9.80;99.90
3406;DHT22;10008;48.682;9.016;2023-11-19T02:24:14;9.80;99.90
3406;DHT22;10008;48.682;9.016;2023-11-19T02:26:56;9.80;99.90
3406;DHT22;10008;48.682;9.016;2023-11-19T02:29:24;9.80;99.90
3406;DHT22;10008;48.682;9.016;2023-11-19T02:31:50;9.80;99.90
3406;DHT22;10008;48.682;9.016;2023-11-19T02:34:16;9.80;99.90
3406;DHT22;10008;48.682;9.016;2023-11-19T02:36:41;9.80;99.90
3406;DHT22;10008;48.682;9.016;2023-11-19T02:39:08;9.80;99.90
3406;DHT22;10008;48.682;9.016;2023-11-19T02:41:37;9.90;99.90
3406;DHT22;10008;48.682;9.016;2023-11-19T02:44:08;9.80;99.90
3406;DHT22;10008;48.682;9.016;2023-11-19T02:46:34;9.90;99.90
3406;DHT22;10008;48.682;9.016;2023-11-19T02:49:00;9.90;99.90
3406;DHT22;10008;48.682;9.016;2023-11-19T02:51:26;9.90;99.90
3406;DHT22;10008;48.682;9.016;2023-11-19T02:53:53;9.90;99.90
3406;DHT22;10008;48.682;9.016;2023-11-19T02:56:18;9.90;99.90
3406;DHT22;10008;48.682;9.016;2023-11-19T02:59:04;10.00;99.90
3406;DHT22;10008;48.682;9.016;2023-11-19T03:01:43;9.90;99.90
3406;DHT22;10008;48.682;9.016;2023-11-19T03:04:14;10.00;99.90
3406;DHT22;10008;48.682;9.016;2023-11-19T03:06:42;10.00;99.90
3406;DHT22;10008;48.682;9.016;2023-11-19T03:09:08;10.00;99.90
3406;DHT22;10008;48.682;9.016;2023-11-19T03:11:36;10.00;99.90
3406;DHT22;10008;48.682;9.016;2023-11-19T03:14:02;10.00;99.90
3406;DHT22;10008;48.682;9.016;2023-11-19T03:16:29;10.00;99.90
3406;DHT22;10008;48.682;9.016;2023-11-19T03:18:54;10.10;99.90
3406;DHT22;10008;48.682;9.016;2023-11-19T03:21:30;10.10;99.90
3406;DHT22;10008;48.682;9.016;2023-11-19T03:23:57;10.10;99.90
3406;DHT22;10008;48.682;9.016;2023-11-19T03:26:27;10.00;99.90
3406;DHT22;10008;48.682;9.016;2023-11-19T03:28:53;10.10;99.90
3406;DHT22;10008;48.682;9.016;2023-11-19T03:31:20;10.20;99.90
3406;DHT22;10008;48.682;9.016;2023-11-19T03:33:46;10.10;99.90
3406;DHT22;10008;48.682;9.016;2023-11-19T03:36:12;10.10;99.90
3406;DHT22;10008;48.682;9.016;2023-11-19T03:38:38;10.10;99.90
3406;DHT22;10008;48.682;9.016;2023-11-19T03:41:11;10.20;99.90
3406;DHT22;10008;48.682;9.016;2023-11-19T03:43:38;10.20;99.90
3406;DHT22;10008;48.682;9.016;2023-11-19T03:46:05;10.20;99.90
3406;DHT22;10008;48.682;9.016;2023-11-19T03:48:40;10.20;99.90
3406;DHT22;10008;48.682;9.016;2023-11-19T03:51:06;10.20;99.90
3406;DHT22;10008;48.682;9.016;2023-11-19T03:53:31;10.20;99.90
3406;DHT22;10008;48.682;9.016;2023-11-19T03:55:57;10.20;99.90
3406;DHT22;10008;48.682;9.016;2023-11-19T03:58:23;10.30;99.90
3406;DHT22;10008;48.682;9.016;2023-11-19T04:00:49;10.30;99.90
3406;DHT22;10008;48.682;9.016;2023-11-19T04:03:14;10.20;99.90
3406;DHT22;10008;48.682;9.016;2023-11-19T04:05:40;10.30;99.90
3406;DHT22;10008;48.682;9.016;2023-11-19T04:08:05;10.20;99.90
3406;DHT22;10008;48.682;9.016;2023-11-19T04:10:31;10.20;99.90
3406;DHT22;10008;48.682;9.016;2023-11-19T04:12:57;10.20;99.90
3406;DHT22;10008;48.682;9.016;2023-11-19T04:15:23;10.20;99.90
3406;DHT22;10008;48.682;9.016;2023-11-19T04:17:49;10.20;99.90
3406;DHT22;10008;48.682;9.016;2023-11-19T04:20:15;10.30;99.90
3406;DHT22;10008;48.682;9.016;2023-11-19T04:22:41;10.30;99.90
3406;DHT22;10008;48.682;9.016;2023-11-19T04:25:07;10.30;99.90
3406;DHT22;10008;48.682;9.016;2023-11-19T04:27:32;10.30;99.90
3406;DHT22;10008;48.682;9.016;2023-11-19T04:30:00;10.30;99.90
3406;DHT22;10008;48.682;9.016;2023-11-19T04:32:27;10.30;99.90
3406;DHT22;10008;48.682;9.016;2023-11-19T04:34:53;10.30;99.90
3406;DHT22;10008;48.682;9.016;2023-11-19T04:37:18;10.40;99.90
3406;DHT22;10008;48.682;9.016;2023-11-19T04:39:45;10.40;99.90
3406;DHT22;10008;48.682;9.016;2023-11-19T04:42:11;10.30;99.90
3406;DHT22;10008;48.682;9.016;2023-11-19T04:44:37;10.40;99.90
3406;DHT22;10008;48.682;9.016;2023-11-19T04:47:03;10.40;99.90
3406;DHT22;10008;48.682;9.016;2023-11-19T04:49:29;10.40;99.90
3406;DHT22;10008;48.682;9.016;2023-11-19T04:51:56;10.40;99.90
3406;DHT22;10008;48.682;9.016;2023-11-19T04:54:21;10.40;99.90
3406;DHT22;10008;48.682;9.016;2023-11-19T04:56:47;10.50;99.90
3406;DHT22;10008;48.682;9.016;2023-11-19T04:59:13;10.40;99.90
3406;DHT22;10008;48.682;9.016;2023-11-19T05:01:39;10.40;99.90
3406;DHT22;10008;48.682;9.016;2023-11-19T05:04:04;10.40;99.90
3406;DHT22;10008;48.682;9.016;2023-11-19T05:06:31;10.40;99.90
3406;DHT22;10008;48.682;9.016;2023-11-19T05:08:59;10.40;99.90
3406;DHT22;10008;48.682;9.016;2023-11-19T05:11:27;10.40;99.90
3406;DHT22;10008;48.682;9.016;2023-11-19T05:13:54;10.50;99.90
3406;DHT22;10008;48.682;9.016;2023-11-19T05:16:20;10.40;99.90
3406;DHT22;10008;48.682;9.016;2023-11-19T05:18:46;10.40;99.90
3406;DHT22;10008;48.682;9.016;2023-11-19T05:21:12;10.40;99.90
3406;DHT22;10008;48.682;9.016;2023-11-19T05:23:38;10.40;99.90
3406;DHT22;10008;48.682;9.016;2023-11-19T05:26:04;10.50;99.90
3406;DHT22;10008;48.682;9.016;2023-11-19T05:28:30;10.50;99.90
3406;DHT22;10008;48.682;9.016;2023-11-19T05:30:56;10.50;99.90
3406;DHT22;10008;48.682;9.016;2023-11-19T05:33:22;10.50;99.90
3406;DHT22;10008;48.682;9.016;2023-11-19T05:35:48;10.50;99.90
3406;DHT22;10008;48.682;9.016;2023-11-19T05:38:14;10.60;99.90
3406;DHT22;10008;48.682;9.016;2023-11-19T05:40:41;10.60;99.90
3406;DHT22;10008;48.682;9.016;2023-11-19T05:43:07;10.60;99.90
3406;DHT22;10008;48.682;9.016;2023-11-19T05:45:33;10.60;99.90
3406;DHT22;10008;48.682;9.016;2023-11-19T05:47:59;10.50;99.90
3406;DHT22;10008;48.682;9.016;2023-11-19T05:50:24;10.60;99.90
3406;DHT22;10008;48.682;9.016;2023-11-19T05:52:50;10.60;99.90
3406;DHT22;10008;48.682;9.016;2023-11-19T05:55:18;10.50;99.90
3406;DHT22;10008;48.682;9.016;2023-11-19T05:57:44;10.50;99.90
3406;DHT22;10008;48.682;9.016;2023-11-19T06:00:11;10.50;99.90
3406;DHT22;10008;48.682;9.016;2023-11-19T06:02:38;10.50;99.90
3406;DHT22;10008;48.682;9.016;2023-11-19T06:05:05;10.50;99.90
3406;DHT22;10008;48.682;9.016;2023-11-19T06:07:32;10.50;99.90
3406;DHT22;10008;48.682;9.016;2023-11-19T06:09:58;10.50;99.90
3406;DHT22;10008;48.682;9.016;2023-11-19T06:12:23;10.50;99.90
3406;DHT22;10008;48.682;9.016;2023-11-19T06:14:49;10.60;99.90
3406;DHT22;10008;48.682;9.016;2023-11-19T06:17:15;10.60;99.90
3406;DHT22;10008;48.682;9.016;2023-11-19T06:19:40;10.60;99.90
3406;DHT22;10008;48.682;9.016;2023-11-19T06:22:06;10.60;99.90
3406;DHT22;10008;48.682;9.016;2023-11-19T06:24:32;10.60;99.90
3406;DHT22;10008;48.682;9.016;2023-11-19T06:26:57;10.60;99.90
3406;DHT22;10008;48.682;9.016;2023-11-19T06:29:24;10.60;99.90
3406;DHT22;10008;48.682;9.016;2023-11-19T06:31:50;10.60;99.90
3406;DHT22;10008;48.682;9.016;2023-11-19T06:34:16;10.60;99.90
3406;DHT22;10008;48.682;9.016;2023-11-19T06:36:42;10.60;99.90
3406;DHT22;10008;48.682;9.016;2023-11-19T06:39:10;10.60;99.90
3406;DHT22;10008;48.682;9.016;2023-11-19T06:41:36;10.60;99.90
3406;DHT22;10008;48.682;9.016;2023-11-19T06:44:05;10.60;99.90
3406;DHT22;10008;48.682;9.016;2023-11-19T06:46:31;10.60;99.90
3406;DHT22;10008;48.682;9.016;2023-11-19T06:48:57;10.70;99.90
3406;DHT22;10008;48.682;9.016;2023-11-19T06:51:23;10.70;99.90
3406;DHT22;10008;48.682;9.016;2023-11-19T06:53:50;10.70;99.90
3406;DHT22;10008;48.682;9.016;2023-11-19T06:56:23;10.70;99.90
3406;DHT22;10008;48.682;9.016;2023-11-19T06:58:49;10.70;99.90
3406;DHT22;10008;48.682;9.016;2023-11-19T07:01:16;10.70;99.90
3406;DHT22;10008;48.682;9.016;2023-11-19T07:03:46;10.70;99.90
3406;DHT22;10008;48.682;9.016;2023-11-19T07:06:12;10.70;99.90
3406;DHT22;10008;48.682;9.016;2023-11-19T07:08:44;10.70;99.90
3406;DHT22;10008;48.682;9.016;2023-11-19T07:11:13;10.70;99.90
3406;DHT22;10008;48.682;9.016;2023-11-19T07:13:42;10.70;99.90
3406;DHT22;10008;48.682;9.016;2023-11-19T07:16:08;10.70;99.90
3406;DHT22;10008;48.682;9.016;2023-11-19T07:18:37;10.70;99.90
3406;DHT22;10008;48.682;9.016;2023-11-19T07:21:04;10.70;99.90
3406;DHT22;10008;48.682;9.016;2023-11-19T07:23:30;10.80;99.90
3406;DHT22;10008;48.682;9.016;2023-11-19T07:25:56;10.80;99.90
3406;DHT22;10008;48.682;9.016;2023-11-19T07:28:22;10.80;99.90
3406;DHT22;10008;48.682;9.016;2023-11-19T07:30:48;10.80;99.90
3406;DHT22;10008;48.682;9.016;2023-11-19T07:33:15;10.80;99.90
3406;DHT22;10008;48.682;9.016;2023-11-19T07:35:42;10.80;99.90
3406;DHT22;10008;48.682;9.016;2023-11-19T07:38:08;10.80;99.90
3406;DHT22;10008;48.682;9.016;2023-11-19T07:40:33;10.90;99.90
3406;DHT22;10008;48.682;9.016;2023-11-19T07:42:59;10.90;99.90
3406;DHT22;10008;48.682;9.016;2023-11-19T07:45:25;10.90;99.90
3406;DHT22;10008;48.682;9.016;2023-11-19T07:47:52;10.90;99.90
3406;DHT22;10008;48.682;9.016;2023-11-19T07:50:18;10.90;99.90
3406;DHT22;10008;48.682;9.016;2023-11-19T07:52:45;10.90;99.90
3406;DHT22;10008;48.682;9.016;2023-11-19T07:55:11;10.90;99.90
3406;DHT22;10008;48.682;9.016;2023-11-19T07:57:37;11.00;99.90
3406;DHT22;10008;48.682;9.016;2023-11-19T08:00:04;11.00;99.90
3406;DHT22;10008;48.682;9.016;2023-11-19T08:02:38;11.00;99.90
3406;DHT22;10008;48.682;9.016;2023-11-19T08:05:04;11.00;99.90
3406;DHT22;10008;48.682;9.016;2023-11-19T08:07:30;11.00;99.90
3406;DHT22;10008;48.682;9.016;2023-11-19T08:09:56;11.00;99.90
3406;DHT22;10008;48.682;9.016;2023-11-19T08:12:21;11.00;99.90
3406;DHT22;10008;48.682;9.016;2023-11-19T08:14:47;11.10;99.90
3406;DHT22;10008;48.682;9.016;2023-11-19T08:17:14;11.10;99.90
3406;DHT22;10008;48.682;9.016;2023-11-19T08:19:39;11.10;99.90
3406;DHT22;10008;48.682;9.016;2023-11-19T08:22:05;11.10;99.90
3406;DHT22;10008;48.682;9.016;2023-11-19T08:24:31;11.10;99.90
3406;DHT22;10008;48.682;9.016;2023-11-19T08:26:57;11.10;99.90
3406;DHT22;10008;48.682;9.016;2023-11-19T08:29:22;11.20;99.90
3406;DHT22;10008;48.682;9.016;2023-11-19T08:31:48;11.20;99.90
3406;DHT22;10008;48.682;9.016;2023-11-19T08:34:14;11.20;99.90
3406;DHT22;10008;48.682;9.016;2023-11-19T08:36:41;11.30;99.90
3406;DHT22;10008;48.682;9.016;2023-11-19T08:39:06;11.40;99.90
3406;DHT22;10008;48.682;9.016;2023-11-19T08:41:34;11.50;99.90
3406;DHT22;10008;48.682;9.016;2023-11-19T08:44:00;11.60;99.90
3406;DHT22;10008;48.682;9.016;2023-11-19T08:46:26;11.60;99.90
3406;DHT22;10008;48.682;9.016;2023-11-19T08:48:51;11.60;99.90
3406;DHT22;10008;48.682;9.016;2023-11-19T08:51:17;11.70;99.90
3406;DHT22;10008;48.682;9.016;2023-11-19T08:53:43;11.80;99.90
3406;DHT22;10008;48.682;9.016;2023-11-19T08:56:09;11.90;99.90
3406;DHT22;10008;48.682;9.016;2023-11-19T08:58:34;12.00;99.90
3406;DHT22;10008;48.682;9.016;2023-11-19T09:01:00;12.00;99.90
3406;DHT22;10008;48.682;9.016;2023-11-19T09:03:26;12.10;99.90
3406;DHT22;10008;48.682;9.016;2023-11-19T09:05:52;12.20;99.90
3406;DHT22;10008;48.682;9.016;2023-11-19T09:08:18;12.30;99.90
3406;DHT22;10008;48.682;9.016;2023-11-19T09:10:44;12.30;99.90
3406;DHT22;10008;48.682;9.016;2023-11-19T09:13:09;12.40;99.90
3406;DHT22;10008;48.682;9.016;2023-11-19T09:15:35;12.60;99.90
3406;DHT22;10008;48.682;9.016;2023-11-19T09:18:01;12.70;99.90
3406;DHT22;10008;48.682;9.016;2023-11-19T09:20:26;12.50;99.90
3406;DHT22;10008;48.682;9.016;2023-11-19T09:22:52;13.00;99.90
3406;DHT22;10008;48.682;9.016;2023-11-19T09:25:18;13.00;99.90
3406;DHT22;10008;48.682;9.016;2023-11-19T09:27:44;13.00;99.90
3406;DHT22;10008;48.682;9.016;2023-11-19T09:30:10;12.90;99.90
3406;DHT22;10008;48.682;9.016;2023-11-19T09:32:36;13.00;99.90
3406;DHT22;10008;48.682;9.016;2023-11-19T09:35:03;13.20;99.90
3406;DHT22;10008;48.682;9.016;2023-11-19T09:37:29;13.40;99.90
3406;DHT22;10008;48.682;9.016;2023-11-19T09:39:55;13.50;99.90
3406;DHT22;10008;48.682;9.016;2023-11-19T09:42:21;13.60;99.90
3406;DHT22;10008;48.682;9.016;2023-11-19T09:44:47;13.70;99.90
3406;DHT22;10008;48.682;9.016;2023-11-19T09:47:14;13.60;99.90
3406;DHT22;10008;48.682;9.016;2023-11-19T09:49:41;13.40;99.90
3406;DHT22;10008;48.682;9.016;2023-11-19T09:52:07;13.30;99.90
3406;DHT22;10008;48.682;9.016;2023-11-19T09:54:33;13.20;99.90
3406;DHT22;10008;48.682;9.016;2023-11-19T09:56:59;13.20;99.90
3406;DHT22;10008;48.682;9.016;2023-11-19T09:59:33;13.30;99.90
3406;DHT22;10008;48.682;9.016;2023-11-19T10:01:59;13.30;99.90
3406;DHT22;10008;48.682;9.016;2023-11-19T10:04:25;13.20;99.90
3406;DHT22;10008;48.682;9.016;2023-11-19T10:06:54;13.30;99.90
3406;DHT22;10008;48.682;9.016;2023-11-19T10:09:20;13.40;99.90
3406;DHT22;10008;48.682;9.016;2023-11-19T10:11:45;13.60;99.90
3406;DHT22;10008;48.682;9.016;2023-11-19T10:14:11;13.70;99.90
3406;DHT22;10008;48.682;9.016;2023-11-19T10:16:38;13.70;99.90
3406;DHT22;10008;48.682;9.016;2023-11-19T10:19:04;13.70;99.90
3406;DHT22;10008;48.682;9.016;2023-11-19T10:21:33;13.80;99.90
3406;DHT22;10008;48.682;9.016;2023-11-19T10:23:59;13.90;99.90
3406;DHT22;10008;48.682;9.016;2023-11-19T10:26:28;14.10;99.90
3406;DHT22;10008;48.682;9.016;2023-11-19T10:28:55;14.20;99.90
3406;DHT22;10008;48.682;9.016;2023-11-19T10:31:21;14.20;99.90
3406;DHT22;10008;48.682;9.016;2023-11-19T10:33:50;14.30;99.90
3406;DHT22;10008;48.682;9.016;2023-11-19T10:36:17;14.40;99.90
3406;DHT22;10008;48.682;9.016;2023-11-19T10:38:55;14.40;99.90
3406;DHT22;10008;48.682;9.016;2023-11-19T10:41:31;14.40;99.90
3406;DHT22;10008;48.682;9.016;2023-11-19T10:44:00;14.50;99.90
3406;DHT22;10008;48.682;9.016;2023-11-19T10:46:42;14.70;99.90
3406;DHT22;10008;48.682;9.016;2023-11-19T10:49:09;14.80;99.90
3406;DHT22;10008;48.682;9.016;2023-11-19T10:51:36;14.70;99.90
3406;DHT22;10008;48.682;9.016;2023-11-19T10:54:06;14.60;99.90
3406;DHT22;10008;48.682;9.016;2023-11-19T10:56:33;14.60;99.90
3406;DHT22;10008;48.682;9.016;2023-11-19T10:59:00;14.50;99.90
3406;DHT22;10008;48.682;9.016;2023-11-19T11:01:42;14.60;99.90
3406;DHT22;10008;48.682;9.016;2023-11-19T11:04:19;14.60;99.90
3406;DHT22;10008;48.682;9.016;2023-11-19T11:06:45;14.60;99.90
3406;DHT22;10008;48.682;9.016;2023-11-19T11:09:13;14.40;99.90
3406;DHT22;10008;48.682;9.016;2023-11-19T11:11:41;14.40;99.90
3406;DHT22;10008;48.682;9.016;2023-11-19T11:14:12;14.50;99.90
3406;DHT22;10008;48.682;9.016;2023-11-19T11:16:43;14.60;99.90
3406;DHT22;10008;48.682;9.016;2023-11-19T11:19:10;14.60;99.90
3406;DHT22;10008;48.682;9.016;2023-11-19T11:21:37;14.70;99.90
3406;DHT22;10008;48.682;9.016;2023-11-19T11:27:34;14.80;99.90
3406;DHT22;10008;48.682;9.016;2023-11-19T11:30:11;14.80;99.90
3406;DHT22;10008;48.682;9.016;2023-11-19T11:32:50;14.60;99.90
3406;DHT22;10008;48.682;9.016;2023-11-19T11:38:08;14.60;99.90
3406;DHT22;10008;48.682;9.016;2023-11-19T11:40:34;14.50;99.90
3406;DHT22;10008;48.682;9.016;2023-11-19T11:43:02;14.30;99.90
3406;DHT22;10008;48.682;9.016;2023-11-19T11:45:38;14.30;99.90
3406;DHT22;10008;48.682;9.016;2023-11-19T11:48:10;14.40;99.90
3406;DHT22;10008;48.682;9.016;2023-11-19T11:50:53;14.40;99.90
3406;DHT22;10008;48.682;9.016;2023-11-19T11:53:20;14.30;99.90
3406;DHT22;10008;48.682;9.016;2023-11-19T11:55:59;14.30;99.90
3406;DHT22;10008;48.682;9.016;2023-11-19T11:58:30;14.30;99.90
3406;DHT22;10008;48.682;9.016;2023-11-19T12:01:01;14.50;99.90
3406;DHT22;10008;48.682;9.016;2023-11-19T12:03:28;14.60;99.90
3406;DHT22;10008;48.682;9.016;2023-11-19T12:05:56;14.60;99.90
3406;DHT22;10008;48.682;9.016;2023-11-19T12:08:27;14.60;99.90
3406;DHT22;10008;48.682;9.016;2023-11-19T12:10:55;14.50;99.90
3406;DHT22;10008;48.682;9.016;2023-11-19T12:13:24;14.40;99.90
3406;DHT22;10008;48.682;9.016;2023-11-19T12:20:55;14.60;99.90
3406;DHT22;10008;48.682;9.016;2023-11-19T12:23:25;14.50;99.90
3406;DHT22;10008;48.682;9.016;2023-11-19T12:25:51;14.60;99.90
3406;DHT22;10008;48.682;9.016;2023-11-19T12:28:16;14.60;99.90
3406;DHT22;10008;48.682;9.016;2023-11-19T12:30:43;14.90;99.90
3406;DHT22;10008;48.682;9.016;2023-11-19T12:33:10;15.10;99.90
3406;DHT22;10008;48.682;9.016;2023-11-19T12:35:43;15.30;99.90
3406;DHT22;10008;48.682;9.016;2023-11-19T12:38:21;15.20;99.90
3406;DHT22;10008;48.682;9.016;2023-11-19T12:41:02;15.20;99.90
3406;DHT22;10008;48.682;9.016;2023-11-19T12:43:27;15.30;99.90
3406;DHT22;10008;48.682;9.016;2023-11-19T12:45:54;15.50;99.90
3406;DHT22;10008;48.682;9.016;2023-11-19T12:48:20;15.40;99.90
3406;DHT22;10008;48.682;9.016;2023-11-19T12:50:59;15.20;99.90
3406;DHT22;10008;48.682;9.016;2023-11-19T12:53:26;15.30;99.90
3406;DHT22;10008;48.682;9.016;2023-11-19T12:55:53;15.20;99.90
3406;DHT22;10008;48.682;9.016;2023-11-19T12:58:32;15.30;99.90
3406;DHT22;10008;48.682;9.016;2023-11-19T13:01:06;15.50;99.90
3406;DHT22;10008;48.682;9.016;2023-11-19T13:03:34;15.40;99.90
3406;DHT22;10008;48.682;9.016;2023-11-19T13:06:04;15.70;99.90
3406;DHT22;10008;48.682;9.016;2023-11-19T13:11:07;15.30;99.90
3406;DHT22;10008;48.682;9.016;2023-11-19T13:13:58;15.40;99.90
3406;DHT22;10008;48.682;9.016;2023-11-19T13:16:26;15.50;99.90
3406;DHT22;10008;48.682;9.016;2023-11-19T13:18:52;15.50;99.90
3406;DHT22;10008;48.682;9.016;2023-11-19T13:21:18;15.80;99.90
3406;DHT22;10008;48.682;9.016;2023-11-19T13:23:44;16.20;99.90
3406;DHT22;10008;48.682;9.016;2023-11-19T13:26:13;16.30;99.90
3406;DHT22;10008;48.682;9.016;2023-11-19T13:28:39;16.30;99.90
3406;DHT22;10008;48.682;9.016;2023-11-19T13:31:05;16.30;99.90
3406;DHT22;10008;48.682;9.016;2023-11-19T13:33:30;16.30;99.90
3406;DHT22;10008;48.682;9.016;2023-11-19T13:35:57;16.20;99.90
3406;DHT22;10008;48.682;9.016;2023-11-19T13:38:22;16.30;99.90
3406;DHT22;10008;48.682;9.016;2023-11-19T13:40:49;16.00;99.90
3406;DHT22;10008;48.682;9.016;2023-11-19T13:43:15;15.80;99.90
3406;DHT22;10008;48.682;9.016;2023-11-19T13:45:41;15.70;99.90
3406;DHT22;10008;48.682;9.016;2023-11-19T13:48:07;15.50;99.90
3406;DHT22;10008;48.682;9.016;2023-11-19T13:50:33;15.60;99.90
3406;DHT22;10008;48.682;9.016;2023-11-19T13:52:59;15.80;99.90
3406;DHT22;10008;48.682;9.016;2023-11-19T13:55:25;16.00;99.90
3406;DHT22;10008;48.682;9.016;2023-11-19T13:57:51;15.90;99.90
3406;DHT22;10008;48.682;9.016;2023-11-19T14:00:17;15.90;99.90
3406;DHT22;10008;48.682;9.016;2023-11-19T14:02:46;16.00;99.90
3406;DHT22;10008;48.682;9.016;2023-11-19T14:05:13;16.00;99.90
3406;DHT22;10008;48.682;9.016;2023-11-19T14:07:40;15.70;99.90
3406;DHT22;10008;48.682;9.016;2023-11-19T14:10:07;15.50;99.90
3406;DHT22;10008;48.682;9.016;2023-11-19T14:12:35;15.20;99.90
3406;DHT22;10008;48.682;9.016;2023-11-19T14:15:05;14.90;99.90
3406;DHT22;10008;48.682;9.016;2023-11-19T14:17:35;14.90;99.90
3406;DHT22;10008;48.682;9.016;2023-11-19T14:20:02;14.80;99.90
3406;DHT22;10008;48.682;9.016;2023-11-19T14:22:30;14.80;99.90
3406;DHT22;10008;48.682;9.016;2023-11-19T14:24:56;14.70;99.90
3406;DHT22;10008;48.682;9.016;2023-11-19T14:27:22;14.50;99.90
3406;DHT22;10008;48.682;9.016;2023-11-19T14:29:48;14.50;99.90
3406;DHT22;10008;48.682;9.016;2023-11-19T14:32:13;14.40;99.90
3406;DHT22;10008;48.682;9.016;2023-11-19T14:34:39;14.30;99.90
3406;DHT22;10008;48.682;9.016;2023-11-19T14:37:05;14.30;99.90
3406;DHT22;10008;48.682;9.016;2023-11-19T14:39:32;14.30;99.90
3406;DHT22;10008;48.682;9.016;2023-11-19T14:41:57;14.10;99.90
3406;DHT22;10008;48.682;9.016;2023-11-19T14:44:27;14.00;99.90
3406;DHT22;10008;48.682;9.016;2023-11-19T14:46:52;14.00;99.90
3406;DHT22;10008;48.682;9.016;2023-11-19T14:49:18;13.90;99.90
3406;DHT22;10008;48.682;9.016;2023-11-19T14:51:44;13.80;99.90
3406;DHT22;10008;48.682;9.016;2023-11-19T14:54:09;13.70;99.90
3406;DHT22;10008;48.682;9.016;2023-11-19T14:56:35;13.60;99.90
3406;DHT22;10008;48.682;9.016;2023-11-19T14:59:01;13.60;99.90
3406;DHT22;10008;48.682;9.016;2023-11-19T15:01:27;13.50;99.90
3406;DHT22;10008;48.682;9.016;2023-11-19T15:03:54;13.40;99.90
3406;DHT22;10008;48.682;9.016;2023-11-19T15:06:23;13.40;99.90
3406;DHT22;10008;48.682;9.016;2023-11-19T15:08:49;13.30;99.90
3406;DHT22;10008;48.682;9.016;2023-11-19T15:11:15;13.30;99.90
3406;DHT22;10008;48.682;9.016;2023-11-19T15:13:41;13.20;99.90
3406;DHT22;10008;48.682;9.016;2023-11-19T15:16:07;13.20;99.90
3406;DHT22;10008;48.682;9.016;2023-11-19T15:18:37;13.20;99.90
3406;DHT22;10008;48.682;9.016;2023-11-19T15:21:03;13.10;99.90
3406;DHT22;10008;48.682;9.016;2023-11-19T15:23:29;13.00;99.90
3406;DHT22;10008;48.682;9.016;2023-11-19T15:25:55;12.90;99.90
3406;DHT22;10008;48.682;9.016;2023-11-19T15:28:21;12.90;99.90
3406;DHT22;10008;48.682;9.016;2023-11-19T15:30:47;12.80;99.90
3406;DHT22;10008;48.682;9.016;2023-11-19T15:33:13;12.70;99.90
3406;DHT22;10008;48.682;9.016;2023-11-19T15:35:39;12.70;99.90
3406;DHT22;10008;48.682;9.016;2023-11-19T15:38:07;12.60;99.90
3406;DHT22;10008;48.682;9.016;2023-11-19T15:40:35;12.60;99.90
3406;DHT22;10008;48.682;9.016;2023-11-19T15:43:03;12.60;99.90
3406;DHT22;10008;48.682;9.016;2023-11-19T15:45:29;12.50;99.90
3406;DHT22;10008;48.682;9.016;2023-11-19T15:47:55;12.50;99.90
3406;DHT22;10008;48.682;9.016;2023-11-19T15:50:21;12.50;99.90
3406;DHT22;10008;48.682;9.016;2023-11-19T15:52:46;12.40;99.90
3406;DHT22;10008;48.682;9.016;2023-11-19T15:55:13;12.00;99.90
3406;DHT22;10008;48.682;9.016;2023-11-19T15:57:39;12.30;99.90
3406;DHT22;10008;48.682;9.016;2023-11-19T16:00:05;12.20;99.90
3406;DHT22;10008;48.682;9.016;2023-11-19T16:02:31;12.10;99.90